Time;durP1;ratioP1;P1;durP2;ratioP2;P2;SDS_P1;SDS_P2;PMS_P1;PMS_P2;Temp;Humidity;BMP_temperature;BMP_pressure;BME280_temperature;BME280_humidity;BME280_pressure;Samples;Min_cycle;Max_cycle;Signal;HPM_P1;HPM_P2
2023/11/30 05:06:47;;;;;;;;;54.00;45.33;;;;;;;;5583714;39;10001002;-53
2023/11/30 05:12:50;;;;;;;;;58.67;47.00;;;;;;;;6492355;39;8914;-56
2023/11/30 08:36:40;;;;;;;;;65.25;54.75;;;;;;;;6401794;39;5001341;-54
2023/11/30 08:42:43;;;;;;;;;45.75;40.50;;;;;;;;6490792;39;8956;-56
2023/11/30 08:48:46;;;;;;;;;58.50;45.25;;;;;;;;6491420;39;8866;-52
2023/11/30 08:54:48;;;;;;;;;59.00;46.50;;;;;;;;6491148;46;9090;-55
2023/11/30 09:00:51;;;;;;;;;58.75;48.50;;;;;;;;6489720;39;8937;-56
2023/11/30 09:06:53;;;;;;;;;65.00;49.00;;;;;;;;6492200;39;9476;-56
2023/11/30 09:12:56;;;;;;;;;59.50;48.75;;;;;;;;6490821;31;9003;-56
2023/11/30 09:18:58;;;;;;;;;56.50;46.75;;;;;;;;6491861;31;9116;-55
2023/11/30 09:25:01;;;;;;;;;60.75;48.50;;;;;;;;6311002;39;10001021;-56
2023/11/30 09:31:04;;;;;;;;;57.25;48.50;;;;;;;;6490213;46;12439;-56
2023/11/30 09:37:06;;;;;;;;;54.75;46.75;;;;;;;;6489663;39;8910;-56
2023/11/30 09:43:09;;;;;;;;;58.50;48.75;;;;;;;;6487873;46;8931;-57
2023/11/30 09:49:14;;;;;;;;;61.25;49.50;;;;;;;;6490587;39;9619;-56
2023/11/30 09:55:25;;;;;;;;;62.00;50.00;;;;;;;;6488762;46;9042;-58
2023/11/30 10:01:27;;;;;;;;;46.00;40.25;;;;;;;;6489115;31;9575;-57
2023/11/30 10:07:30;;;;;;;;;58.00;48.50;;;;;;;;6488628;39;8945;-54
2023/11/30 10:13:32;;;;;;;;;63.00;49.75;;;;;;;;6490091;39;8914;-57
2023/11/30 10:19:35;;;;;;;;;64.00;49.50;;;;;;;;6490084;46;8942;-55
2023/11/30 10:25:41;;;;;;;;;65.00;49.25;;;;;;;;6506956;36;8945;-56
2023/11/30 10:31:49;;;;;;;;;62.25;53.00;;;;;;;;6490667;31;9053;-62
2023/11/30 10:37:53;;;;;;;;;59.25;48.25;;;;;;;;6490856;39;8975;-56
2023/11/30 10:43:59;;;;;;;;;51.00;44.00;;;;;;;;6490882;39;9006;-56
2023/11/30 10:50:05;;;;;;;;;52.25;45.25;;;;;;;;6490850;39;8879;-57
2023/11/30 10:56:13;;;;;;;;;52.00;44.50;;;;;;;;6490509;39;8993;-55
2023/11/30 11:02:15;;;;;;;;;40.75;36.00;;;;;;;;6490083;39;9019;-54
2023/11/30 11:08:18;;;;;;;;;54.00;44.50;;;;;;;;6490467;39;8898;-56
2023/11/30 11:14:30;;;;;;;;;50.25;44.75;;;;;;;;6489588;39;8907;-56
2023/11/30 11:20:35;;;;;;;;;60.25;49.00;;;;;;;;6490404;46;8898;-59
2023/11/30 11:26:46;;;;;;;;;57.75;44.50;;;;;;;;6489263;39;8905;-56
2023/11/30 11:32:49;;;;;;;;;58.25;47.75;;;;;;;;6490506;46;8997;-56
2023/11/30 11:38:51;;;;;;;;;64.00;50.00;;;;;;;;6489493;39;8933;-55
2023/11/30 11:44:54;;;;;;;;;59.50;48.25;;;;;;;;6490008;39;8943;-54
2023/11/30 11:50:58;;;;;;;;;63.50;50.25;;;;;;;;6490368;31;8954;-56
2023/11/30 11:57:02;;;;;;;;;55.75;44.50;;;;;;;;6490432;31;8961;-57
2023/11/30 12:03:07;;;;;;;;;44.75;40.50;;;;;;;;6489845;39;8890;-57
2023/11/30 12:09:11;;;;;;;;;54.75;47.25;;;;;;;;6489744;46;8898;-57
2023/11/30 12:15:15;;;;;;;;;62.50;48.50;;;;;;;;6489985;31;8886;-58
2023/11/30 12:21:21;;;;;;;;;54.00;45.75;;;;;;;;6490901;39;8875;-58
2023/11/30 12:27:23;;;;;;;;;64.25;48.00;;;;;;;;6491101;31;8909;-55
2023/11/30 12:33:25;;;;;;;;;63.75;51.25;;;;;;;;6488374;39;8958;-56
2023/11/30 12:39:29;;;;;;;;;61.25;48.50;;;;;;;;6489909;39;9004;-54
2023/11/30 12:45:34;;;;;;;;;57.50;46.00;;;;;;;;6489474;39;9037;-56
2023/11/30 12:51:36;;;;;;;;;61.33;50.33;;;;;;;;6488727;31;9636;-58
2023/11/30 12:57:39;;;;;;;;;60.25;49.00;;;;;;;;6489744;39;8911;-57
2023/11/30 13:03:41;;;;;;;;;59.25;48.00;;;;;;;;6488646;46;8964;-57
2023/11/30 13:09:43;;;;;;;;;63.25;52.50;;;;;;;;6488972;39;8902;-58
2023/11/30 13:15:46;;;;;;;;;71.75;57.50;;;;;;;;6488837;39;9034;-56
2023/11/30 13:21:50;;;;;;;;;67.50;52.75;;;;;;;;6488752;31;8927;-58
2023/11/30 13:27:52;;;;;;;;;67.00;55.00;;;;;;;;6487869;46;8897;-58
2023/11/30 13:33:54;;;;;;;;;57.00;48.25;;;;;;;;6488428;31;8939;-56
2023/11/30 13:39:57;;;;;;;;;65.00;50.00;;;;;;;;6489340;31;8854;-56
2023/11/30 13:45:59;;;;;;;;;65.00;52.75;;;;;;;;6487274;31;8918;-55
2023/11/30 13:52:03;;;;;;;;;67.00;56.50;;;;;;;;6488032;46;9002;-57
2023/11/30 13:58:07;;;;;;;;;171.00;154.25;;;;;;;;6488728;39;8934;-56
2023/11/30 14:04:10;;;;;;;;;96.67;75.00;;;;;;;;6484573;31;8992;-56
2023/11/30 14:10:13;;;;;;;;;105.67;96.33;;;;;;;;6487918;47;8957;-59
2023/11/30 14:16:15;;;;;;;;;142.67;126.00;;;;;;;;6486906;39;8946;-60
2023/11/30 14:22:19;;;;;;;;;156.50;140.50;;;;;;;;6487583;31;9042;-60
2023/11/30 14:28:21;;;;;;;;;175.75;143.25;;;;;;;;6487369;39;8914;-58
2023/11/30 14:34:25;;;;;;;;;105.00;89.67;;;;;;;;6487990;47;9019;-59
2023/11/30 14:40:27;;;;;;;;;105.67;89.67;;;;;;;;6487344;39;8965;-59
2023/11/30 14:46:29;;;;;;;;;85.50;66.75;;;;;;;;6487909;39;9037;-60
2023/11/30 14:52:31;;;;;;;;;161.67;136.33;;;;;;;;6487643;47;8942;-59
2023/11/30 14:58:33;;;;;;;;;107.00;96.33;;;;;;;;6488793;39;8977;-59
2023/11/30 15:04:38;;;;;;;;;111.33;98.33;;;;;;;;6489323;46;8930;-59
2023/11/30 15:10:43;;;;;;;;;82.25;64.00;;;;;;;;6490022;39;8907;-59
2023/11/30 15:16:45;;;;;;;;;78.25;60.25;;;;;;;;6486555;39;8930;-60
2023/11/30 15:22:47;;;;;;;;;77.00;60.50;;;;;;;;6488387;39;8963;-60
2023/11/30 15:28:49;;;;;;;;;78.75;60.75;;;;;;;;6488134;39;8917;-57
2023/11/30 15:34:51;;;;;;;;;72.50;56.25;;;;;;;;6489062;31;9032;-59
2023/11/30 15:40:54;;;;;;;;;76.00;59.50;;;;;;;;6489914;39;8907;-57
2023/11/30 15:46:56;;;;;;;;;80.67;65.00;;;;;;;;6489596;39;8846;-57
2023/11/30 15:53:00;;;;;;;;;80.00;63.67;;;;;;;;6488553;39;8879;-58
2023/11/30 15:59:03;;;;;;;;;93.33;72.00;;;;;;;;6490323;31;9433;-55
2023/11/30 16:05:06;;;;;;;;;90.33;71.00;;;;;;;;6488429;31;8985;-58
2023/11/30 16:11:13;;;;;;;;;86.33;68.00;;;;;;;;6488407;39;8850;-57
2023/11/30 16:17:17;;;;;;;;;81.33;65.33;;;;;;;;6487812;39;9613;-59
2023/11/30 16:23:22;;;;;;;;;76.75;64.00;;;;;;;;6487989;46;8885;-58
2023/11/30 16:29:27;;;;;;;;;83.00;63.33;;;;;;;;6488995;46;8922;-56
2023/11/30 16:35:32;;;;;;;;;76.00;60.00;;;;;;;;6488401;39;9033;-59
2023/11/30 16:41:34;;;;;;;;;72.25;55.25;;;;;;;;6489752;31;8864;-57
2023/11/30 16:47:37;;;;;;;;;73.50;59.50;;;;;;;;6488994;39;8889;-59
2023/11/30 16:53:40;;;;;;;;;70.00;55.75;;;;;;;;6488793;46;9119;-58
2023/11/30 16:59:43;;;;;;;;;62.25;52.25;;;;;;;;6487860;46;8988;-57
2023/11/30 17:05:46;;;;;;;;;76.33;59.33;;;;;;;;6488507;46;8903;-57
2023/11/30 17:11:48;;;;;;;;;81.00;64.00;;;;;;;;6488068;46;8910;-59
2023/11/30 17:17:50;;;;;;;;;67.50;56.25;;;;;;;;6488417;46;8887;-59
2023/11/30 17:23:53;;;;;;;;;77.25;60.25;;;;;;;;6488836;39;8858;-57
2023/11/30 17:29:55;;;;;;;;;75.67;62.33;;;;;;;;6487968;39;9843;-57
2023/11/30 17:35:57;;;;;;;;;85.33;66.33;;;;;;;;6488962;31;8933;-57
2023/11/30 17:41:59;;;;;;;;;88.67;67.33;;;;;;;;6489236;46;8847;-58
2023/11/30 17:48:05;;;;;;;;;87.67;66.00;;;;;;;;6488595;31;9565;-56
2023/11/30 17:54:07;;;;;;;;;78.67;61.00;;;;;;;;6487726;31;9455;-60
2023/11/30 18:00:10;;;;;;;;;79.67;62.67;;;;;;;;6487758;39;8861;-58
2023/11/30 18:06:14;;;;;;;;;82.33;64.67;;;;;;;;6487448;39;8931;-59
2023/11/30 18:12:16;;;;;;;;;87.33;67.00;;;;;;;;6488975;39;9447;-58
2023/11/30 18:18:18;;;;;;;;;91.00;72.33;;;;;;;;6487831;31;8871;-55
2023/11/30 18:24:29;;;;;;;;;94.00;76.67;;;;;;;;6487682;39;9651;-59
2023/11/30 18:30:32;;;;;;;;;98.67;76.00;;;;;;;;6488305;46;8919;-57
2023/11/30 18:36:35;;;;;;;;;88.33;71.33;;;;;;;;6490523;31;8913;-56
2023/11/30 18:42:37;;;;;;;;;89.33;68.33;;;;;;;;6490716;31;8930;-58
2023/11/30 18:48:42;;;;;;;;;85.67;67.00;;;;;;;;6490634;31;9514;-57
2023/11/30 18:54:46;;;;;;;;;92.67;73.67;;;;;;;;6489765;46;8929;-58
2023/11/30 19:00:50;;;;;;;;;77.00;60.33;;;;;;;;6490356;31;8838;-55
2023/11/30 19:06:52;;;;;;;;;83.67;66.00;;;;;;;;6488796;46;9018;-58
2023/11/30 19:12:54;;;;;;;;;73.33;54.00;;;;;;;;6310287;36;10001176;-58
2023/11/30 19:18:58;;;;;;;;;78.33;64.00;;;;;;;;6489186;39;8949;-57
2023/11/30 19:25:01;;;;;;;;;79.67;63.67;;;;;;;;6490844;39;8958;-57
2023/11/30 19:31:08;;;;;;;;;77.33;63.33;;;;;;;;6489345;46;8883;-54
2023/11/30 19:37:11;;;;;;;;;67.33;53.33;;;;;;;;6489652;46;8997;-57
2023/11/30 19:43:14;;;;;;;;;77.33;58.67;;;;;;;;6489618;46;8902;-57
2023/11/30 19:49:16;;;;;;;;;76.33;59.33;;;;;;;;6488862;31;8986;-55
2023/11/30 19:55:19;;;;;;;;;78.33;61.67;;;;;;;;6489631;31;8891;-57
2023/11/30 20:01:23;;;;;;;;;73.33;60.33;;;;;;;;6489836;39;8949;-58
2023/11/30 20:07:26;;;;;;;;;74.33;59.00;;;;;;;;6489521;39;8891;-57
2023/11/30 20:13:29;;;;;;;;;76.33;60.00;;;;;;;;6535660;36;8956;-58
2023/11/30 20:19:34;;;;;;;;;79.00;63.00;;;;;;;;6489113;39;9578;-57
2023/11/30 20:25:37;;;;;;;;;74.33;60.00;;;;;;;;6489115;39;8954;-57
2023/11/30 20:31:39;;;;;;;;;82.00;64.00;;;;;;;;6488939;31;8943;-58
2023/11/30 20:37:42;;;;;;;;;78.33;61.33;;;;;;;;6488617;39;8941;-58
2023/11/30 20:43:44;;;;;;;;;79.00;62.67;;;;;;;;6489226;46;8944;-57
2023/11/30 20:49:47;;;;;;;;;74.67;61.00;;;;;;;;6489087;39;9597;-57
2023/11/30 20:55:50;;;;;;;;;76.67;63.33;;;;;;;;6488474;31;8974;-58
2023/11/30 21:01:53;;;;;;;;;78.00;62.00;;;;;;;;6488280;39;8930;-57
2023/11/30 21:07:57;;;;;;;;;78.00;60.67;;;;;;;;6488646;46;8958;-57
2023/11/30 21:13:59;;;;;;;;;80.00;61.00;;;;;;;;6489120;39;8888;-56
2023/11/30 21:20:04;;;;;;;;;81.00;59.67;;;;;;;;6488108;31;8943;-58
2023/11/30 21:26:09;;;;;;;;;77.00;64.67;;;;;;;;6488458;31;8862;-58
2023/11/30 21:32:11;;;;;;;;;74.00;60.33;;;;;;;;6488686;39;8918;-56
2023/11/30 21:38:16;;;;;;;;;86.00;66.67;;;;;;;;6488429;39;9386;-58
2023/11/30 21:44:18;;;;;;;;;76.00;63.00;;;;;;;;6489270;39;8867;-56
2023/11/30 21:50:21;;;;;;;;;78.33;62.67;;;;;;;;6488675;31;8962;-58
2023/11/30 21:56:26;;;;;;;;;81.00;65.00;;;;;;;;6488587;39;9543;-57
2023/11/30 22:02:30;;;;;;;;;82.67;63.00;;;;;;;;6487874;39;8918;-57
2023/11/30 22:08:32;;;;;;;;;79.00;59.67;;;;;;;;6487884;39;8971;-58
2023/11/30 22:14:35;;;;;;;;;73.33;57.67;;;;;;;;6489284;31;8902;-56
2023/11/30 22:20:37;;;;;;;;;72.00;53.00;;;;;;;;6488673;39;8863;-58
2023/11/30 22:26:42;;;;;;;;;72.00;55.67;;;;;;;;6487579;47;8890;-55
2023/11/30 22:32:48;;;;;;;;;76.33;59.00;;;;;;;;6489172;31;9015;-55
2023/11/30 22:38:51;;;;;;;;;79.67;62.67;;;;;;;;6488348;31;8910;-56
2023/11/30 22:44:53;;;;;;;;;74.67;58.00;;;;;;;;6487730;31;8863;-59
2023/11/30 22:50:55;;;;;;;;;72.00;58.67;;;;;;;;6487806;31;8940;-55
2023/11/30 22:56:57;;;;;;;;;79.00;62.00;;;;;;;;6487722;39;8882;-56
2023/11/30 23:03:00;;;;;;;;;73.00;59.33;;;;;;;;6486881;39;8925;-58
2023/11/30 23:09:03;;;;;;;;;70.67;57.33;;;;;;;;6487855;31;9508;-57
2023/11/30 23:15:06;;;;;;;;;59.25;49.75;;;;;;;;6487955;31;8874;-55
2023/11/30 23:21:08;;;;;;;;;70.75;57.25;;;;;;;;6490507;31;8941;-56
2023/11/30 23:27:12;;;;;;;;;71.33;56.00;;;;;;;;6490287;46;8925;-57
2023/11/30 23:33:14;;;;;;;;;80.00;65.33;;;;;;;;6490423;39;8946;-58
2023/11/30 23:39:17;;;;;;;;;81.00;62.67;;;;;;;;6490798;39;9506;-56
2023/11/30 23:45:19;;;;;;;;;78.67;62.33;;;;;;;;6490236;31;8905;-57
2023/11/30 23:51:21;;;;;;;;;78.33;61.00;;;;;;;;6490488;31;8881;-57
2023/11/30 23:57:24;;;;;;;;;78.33;63.67;;;;;;;;6489660;39;8970;-57
